createdAt,value
2018-08-17T00:00:03.536Z,70.59
2018-08-17T00:00:13.222Z,70.98
2018-08-17T00:00:23.511Z,70.88
2018-08-17T00:00:33.236Z,70.98
2018-08-17T00:00:43.560Z,71.08
2018-08-17T00:00:53.575Z,70.68
2018-08-17T00:01:03.561Z,70.98
2018-08-17T00:01:13.616Z,71.08
2018-08-17T00:01:23.320Z,71.08
2018-08-17T00:01:33.595Z,70.78
2018-08-17T00:01:43.656Z,70.59
2018-08-17T00:01:53.653Z,70.5
2018-08-17T00:02:03.651Z,70.5
2018-08-17T00:02:13.651Z,70.59
2018-08-17T00:02:24.002Z,70.4
2018-08-17T00:02:33.702Z,70.88
2018-08-17T00:02:43.421Z,70.68
2018-08-17T00:02:53.722Z,70.5
2018-08-17T00:03:03.471Z,70.3
2018-08-17T00:03:13.482Z,70.3
2018-08-17T00:03:23.751Z,70.59
2018-08-17T00:03:33.803Z,70.5
2018-08-17T00:03:43.523Z,70.4
2018-08-17T00:03:53.541Z,70.68
2018-08-17T00:04:03.801Z,70.4
2018-08-17T00:04:13.849Z,70.59
2018-08-17T00:04:23.850Z,70.84
2018-08-17T00:04:33.582Z,70.98
2018-08-17T00:04:43.873Z,70.88
2018-08-17T00:04:53.591Z,70.98
2018-08-17T00:05:03.893Z,70.98
2018-08-17T00:05:13.654Z,70.88
2018-08-17T00:05:24.219Z,71.17
2018-08-17T00:05:33.949Z,71.08
2018-08-17T00:05:43.681Z,70.88
2018-08-17T00:05:53.697Z,71.17
2018-08-17T00:06:03.982Z,70.98
2018-08-17T00:06:14.017Z,71.08
2018-08-17T00:06:24.046Z,71.08
2018-08-17T00:06:34.012Z,70.98
2018-08-17T00:06:44.064Z,70.88
2018-08-17T00:06:53.787Z,70.88
2018-08-17T00:07:04.071Z,71.26
2018-08-17T00:07:14.076Z,71.14
2018-08-17T00:07:24.093Z,71.36
2018-08-17T00:07:34.103Z,71.56
2018-08-17T00:07:43.851Z,71.26
2018-08-17T00:07:54.134Z,71.36
2018-08-17T00:08:04.151Z,71.36
2018-08-17T00:08:13.884Z,71.36
2018-08-17T00:08:24.161Z,71.36
2018-08-17T00:08:33.929Z,71.36
2018-08-17T00:08:43.923Z,71.46
2018-08-17T00:08:54.205Z,71.17
2018-08-17T00:09:04.238Z,71.36
2018-08-17T00:09:14.263Z,71.33
2018-08-17T00:09:23.985Z,71.17
2018-08-17T00:09:34.273Z,71.46
2018-08-17T00:09:44.272Z,71.36
2018-08-17T00:09:54.300Z,71.36
2018-08-17T00:10:04.042Z,71.46
2018-08-17T00:10:14.052Z,71.52
2018-08-17T00:10:24.342Z,71.26
2018-08-17T00:10:34.351Z,71.26
2018-08-17T00:10:44.101Z,71.26
2018-08-17T00:10:54.092Z,71.66
2018-08-17T00:11:04.111Z,71.66
2018-08-17T00:11:14.143Z,71.46
2018-08-17T00:11:24.420Z,71.46
2018-08-17T00:11:34.142Z,71.36
2018-08-17T00:11:44.130Z,71.36
2018-08-17T00:11:54.181Z,71.56
2018-08-17T00:12:04.183Z,71.66
2018-08-17T00:12:14.476Z,71.56
2018-08-17T00:12:24.223Z,71.36
2018-08-17T00:12:34.216Z,71.46
2018-08-17T00:12:44.502Z,71.46
2018-08-17T00:12:54.553Z,71.36
2018-08-17T00:13:04.266Z,71.26
2018-08-17T00:13:14.574Z,71.46
2018-08-17T00:13:24.592Z,71.26
2018-08-17T00:13:34.328Z,71.33
2018-08-17T00:13:44.636Z,71.56
2018-08-17T00:13:54.661Z,71.75
2018-08-17T00:14:04.392Z,71.62
2018-08-17T00:14:14.624Z,71.66
2018-08-17T00:14:24.684Z,71.75
2018-08-17T00:14:34.686Z,71.36
2018-08-17T00:14:44.394Z,71.62
2018-08-17T00:14:54.713Z,71.56
2018-08-17T00:15:04.460Z,71.36
2018-08-17T00:15:14.444Z,71.56
2018-08-17T00:15:24.748Z,71.56
2018-08-17T00:15:34.472Z,71.36
2018-08-17T00:15:44.773Z,71.17
2018-08-17T00:15:54.785Z,71.26
2018-08-17T00:16:04.807Z,71.46
2018-08-17T00:16:14.527Z,71.36
2018-08-17T00:16:24.544Z,71.46
2018-08-17T00:16:34.562Z,71.26
2018-08-17T00:16:44.871Z,71.26
2018-08-17T00:16:54.865Z,71.84
2018-08-17T00:17:04.604Z,71.36
2018-08-17T00:17:14.913Z,71.46
2018-08-17T00:17:24.952Z,71.26
2018-08-17T00:17:34.667Z,71.46
2018-08-17T00:17:44.689Z,71.46
2018-08-17T00:17:54.663Z,71.33
2018-08-17T00:18:04.974Z,71.46
2018-08-17T00:18:14.706Z,71.46
2018-08-17T00:18:24.714Z,71.56
2018-08-17T00:18:34.984Z,71.66
2018-08-17T00:18:44.724Z,71.26
2018-08-17T00:18:54.746Z,71.46
2018-08-17T00:19:04.769Z,71.46
2018-08-17T00:19:14.784Z,71.46
2018-08-17T00:19:25.105Z,71.36
2018-08-17T00:19:35.084Z,71.36
2018-08-17T00:19:45.112Z,71.66
2018-08-17T00:19:55.118Z,71.56
2018-08-17T00:20:04.846Z,71.46
2018-08-17T00:20:14.865Z,71.56
2018-08-17T00:20:25.165Z,71.17
2018-08-17T00:20:35.155Z,71.46
2018-08-17T00:20:44.925Z,71.56
2018-08-17T00:20:54.941Z,71.66
2018-08-17T00:21:05.224Z,71.26
2018-08-17T00:21:14.963Z,71.26
2018-08-17T00:21:24.970Z,71.36
2018-08-17T00:21:35.247Z,71.17
2018-08-17T00:21:45.277Z,71.46
2018-08-17T00:21:55.287Z,71.46
2018-08-17T00:22:05.284Z,71.36
2018-08-17T00:22:15.324Z,71.14
2018-08-17T00:22:25.294Z,71.56
2018-08-17T00:22:35.053Z,71.46
2018-08-17T00:22:45.065Z,71.33
2018-08-17T00:22:55.356Z,71.62
2018-08-17T00:23:05.374Z,71.94
2018-08-17T00:23:15.394Z,71.56
2018-08-17T00:23:25.434Z,71.56
2018-08-17T00:23:35.405Z,71.66
2018-08-17T00:23:45.156Z,71.52
2018-08-17T00:23:55.452Z,71.36
2018-08-17T00:24:05.455Z,71.66
2018-08-17T00:24:15.487Z,71.66
2018-08-17T00:24:25.484Z,71.94
2018-08-17T00:24:35.507Z,71.84
2018-08-17T00:24:45.485Z,71.56
2018-08-17T00:24:55.550Z,71.26
2018-08-17T00:25:05.534Z,71.52
2018-08-17T00:25:15.544Z,71.72
2018-08-17T00:25:25.586Z,71.75
2018-08-17T00:25:35.603Z,71.81
2018-08-17T00:25:45.608Z,71.94
2018-08-17T00:25:55.595Z,71.75
2018-08-17T00:26:05.371Z,71.94
2018-08-17T00:26:15.639Z,71.75
2018-08-17T00:26:25.364Z,71.46
2018-08-17T00:26:35.375Z,71.84
2018-08-17T00:26:45.412Z,71.75
2018-08-17T00:26:55.675Z,71.84
2018-08-17T00:27:05.435Z,72.14
2018-08-17T00:27:15.716Z,72.14
2018-08-17T00:27:25.724Z,71.84
2018-08-17T00:27:35.467Z,72.33
2018-08-17T00:27:45.473Z,72.04
2018-08-17T00:27:55.500Z,72.24
2018-08-17T00:28:05.784Z,72.33
2018-08-17T00:28:15.804Z,72.42
2018-08-17T00:28:25.799Z,72.14
2018-08-17T00:28:35.825Z,72.14
2018-08-17T00:28:45.837Z,72.14
2018-08-17T00:28:55.861Z,72.2
2018-08-17T00:29:05.850Z,72.1
2018-08-17T00:29:15.596Z,72.1
2018-08-17T00:29:25.905Z,72
2018-08-17T00:29:35.911Z,71.75
2018-08-17T00:29:45.667Z,71.75
2018-08-17T00:29:55.967Z,71.94
2018-08-17T00:30:05.946Z,71.66
2018-08-17T00:30:15.973Z,71.56
2018-08-17T00:30:26.005Z,71.75
2018-08-17T00:30:35.739Z,71.84
2018-08-17T00:30:45.997Z,71.56
2018-08-17T00:30:56.065Z,71.75
2018-08-17T00:31:05.747Z,71.94
2018-08-17T00:31:16.052Z,71.84
2018-08-17T00:31:26.132Z,71.72
2018-08-17T00:31:36.075Z,71.94
2018-08-17T00:31:46.085Z,71.46
2018-08-17T00:31:56.085Z,71.46
2018-08-17T00:32:06.134Z,71.36
2018-08-17T00:32:16.171Z,71.42
2018-08-17T00:32:25.846Z,71.36
2018-08-17T00:32:35.905Z,71.42
2018-08-17T00:32:46.184Z,71.46
2018-08-17T00:32:55.905Z,71.52
2018-08-17T00:33:05.895Z,71.56
2018-08-17T00:33:16.220Z,71.56
2018-08-17T00:33:26.228Z,71.56
2018-08-17T00:33:35.955Z,71.23
2018-08-17T00:33:46.256Z,71.84
2018-08-17T00:33:56.266Z,71.94
2018-08-17T00:34:06.012Z,71.66
2018-08-17T00:34:16.003Z,71.56
2018-08-17T00:34:26.304Z,71.75
2018-08-17T00:34:36.055Z,72.04
2018-08-17T00:34:46.306Z,71.81
2018-08-17T00:34:56.334Z,71.72
2018-08-17T00:35:06.107Z,72.1
2018-08-17T00:35:16.104Z,72
2018-08-17T00:35:26.394Z,71.94
2018-08-17T00:35:36.407Z,71.72
2018-08-17T00:35:46.434Z,71.66
2018-08-17T00:35:56.416Z,71.36
2018-08-17T00:36:06.166Z,71.42
2018-08-17T00:36:16.425Z,71.62
2018-08-17T00:36:26.452Z,71.52
2018-08-17T00:36:36.501Z,71.52
2018-08-17T00:36:46.520Z,71.42
2018-08-17T00:36:56.528Z,71.75
2018-08-17T00:37:06.518Z,71.75
2018-08-17T00:37:16.279Z,71.72
2018-08-17T00:37:26.548Z,71.81
2018-08-17T00:37:36.586Z,71.36
2018-08-17T00:37:46.592Z,71.42
2018-08-17T00:37:56.592Z,71.52
2018-08-17T00:38:06.602Z,71.56
2018-08-17T00:38:16.627Z,71.62
2018-08-17T00:38:26.345Z,71.81
2018-08-17T00:38:36.658Z,72.24
2018-08-17T00:38:46.672Z,72
2018-08-17T00:38:56.686Z,71.81
2018-08-17T00:39:06.697Z,72.24
2018-08-17T00:39:16.452Z,72.42
2018-08-17T00:39:26.736Z,72.2
2018-08-17T00:39:36.737Z,72.3
2018-08-17T00:39:46.758Z,72.14
2018-08-17T00:39:56.477Z,72
2018-08-17T00:40:06.769Z,72.1
2018-08-17T00:40:16.510Z,72
2018-08-17T00:40:26.827Z,71.91
2018-08-17T00:40:36.804Z,71.91
2018-08-17T00:40:46.806Z,72
2018-08-17T00:40:56.820Z,72.33
2018-08-17T00:41:06.593Z,72.49
2018-08-17T00:41:16.855Z,72.49
2018-08-17T00:41:26.881Z,72.42
2018-08-17T00:41:36.600Z,72.39
2018-08-17T00:41:46.902Z,72.33
2018-08-17T00:41:56.915Z,72.42
2018-08-17T00:42:06.926Z,72
2018-08-17T00:42:16.657Z,72
2018-08-17T00:42:26.955Z,72.2
2018-08-17T00:42:36.963Z,72
2018-08-17T00:42:46.706Z,71.91
2018-08-17T00:42:56.702Z,72
2018-08-17T00:43:07.012Z,72
2018-08-17T00:43:16.748Z,71.94
2018-08-17T00:43:26.755Z,72
2018-08-17T00:43:37.046Z,72
2018-08-17T00:43:47.047Z,72
2018-08-17T00:43:56.804Z,72.1
2018-08-17T00:44:07.098Z,71.91
2018-08-17T00:44:17.221Z,72.42
2018-08-17T00:44:27.183Z,72.24
2018-08-17T00:44:37.146Z,72.2
2018-08-17T00:44:47.157Z,72.2
2018-08-17T00:44:57.169Z,72.3
2018-08-17T00:45:07.169Z,72.1
2018-08-17T00:45:17.199Z,72.2
2018-08-17T00:45:27.265Z,72
2018-08-17T00:45:37.238Z,72
2018-08-17T00:45:47.262Z,72.1
2018-08-17T00:45:57.266Z,72.2
2018-08-17T00:46:07.248Z,72.39
2018-08-17T00:46:17.275Z,72.1
2018-08-17T00:46:27.320Z,72.2
2018-08-17T00:46:37.316Z,72.1
2018-08-17T00:46:47.297Z,71.91
2018-08-17T00:46:57.360Z,72
2018-08-17T00:47:07.078Z,72
2018-08-17T00:47:17.097Z,72
2018-08-17T00:47:27.376Z,72
2018-08-17T00:47:37.365Z,72
2018-08-17T00:47:47.128Z,72.04
2018-08-17T00:47:57.584Z,72.2
2018-08-17T00:48:07.642Z,72.3
2018-08-17T00:48:17.167Z,71.94
2018-08-17T00:48:27.178Z,72.39
2018-08-17T00:48:37.479Z,72.3
2018-08-17T00:48:47.484Z,72.2
2018-08-17T00:48:57.508Z,72.1
2018-08-17T00:49:07.242Z,72.39
2018-08-17T00:49:17.485Z,72
2018-08-17T00:49:27.504Z,72
2018-08-17T00:49:37.503Z,72.14
2018-08-17T00:49:47.494Z,72.04
2018-08-17T00:49:57.551Z,71.91
2018-08-17T00:50:07.526Z,72.1
2018-08-17T00:50:17.553Z,72
2018-08-17T00:50:27.566Z,72.04
2018-08-17T00:50:37.563Z,71.91
2018-08-17T00:50:47.594Z,71.94
2018-08-17T00:50:57.631Z,71.91
2018-08-17T00:51:07.620Z,71.91
2018-08-17T00:51:17.623Z,71.81
2018-08-17T00:51:27.643Z,71.91
2018-08-17T00:51:37.663Z,72
2018-08-17T00:51:47.405Z,72
2018-08-17T00:51:57.682Z,72.1
2018-08-17T00:52:07.693Z,72
2018-08-17T00:52:17.724Z,72.1
2018-08-17T00:52:27.754Z,72.3
2018-08-17T00:52:37.749Z,72.3
2018-08-17T00:52:47.771Z,72.39
2018-08-17T00:52:57.758Z,72.49
2018-08-17T00:53:07.752Z,72.58
2018-08-17T00:53:17.784Z,72.49
2018-08-17T00:53:27.805Z,72.49
2018-08-17T00:53:37.795Z,72.39
2018-08-17T00:53:47.868Z,72.58
2018-08-17T00:53:57.844Z,72.39
2018-08-17T00:54:07.867Z,72.2
2018-08-17T00:54:17.833Z,72.3
2018-08-17T00:54:27.856Z,72.2
2018-08-17T00:54:37.891Z,72.2
2018-08-17T00:54:47.913Z,72.39
2018-08-17T00:54:57.933Z,72.58
2018-08-17T00:55:07.943Z,72.58
2018-08-17T00:55:17.963Z,72.62
2018-08-17T00:55:28.057Z,72.78
2018-08-17T00:55:37.973Z,72.58
2018-08-17T00:55:47.974Z,72.3
2018-08-17T00:55:57.753Z,72.68
2018-08-17T00:56:07.983Z,72.58
2018-08-17T00:56:18.004Z,72.39
2018-08-17T00:56:28.043Z,72.58
2018-08-17T00:56:38.059Z,72.58
2018-08-17T00:56:48.074Z,72.58
2018-08-17T00:56:57.937Z,72.2
2018-08-17T00:57:08.134Z,72.78
2018-08-17T00:57:18.102Z,72.58
2018-08-17T00:57:28.175Z,72.58
2018-08-17T00:57:38.129Z,72.58
2018-08-17T00:57:48.146Z,72.58
2018-08-17T00:57:58.177Z,72.58
2018-08-17T00:58:08.184Z,72.68
2018-08-17T00:58:18.212Z,72.58
2018-08-17T00:58:28.243Z,72.58
2018-08-17T00:58:38.264Z,72.78
2018-08-17T00:58:48.250Z,72.78
2018-08-17T00:58:58.274Z,72.58
2018-08-17T00:59:08.255Z,72.58
2018-08-17T00:59:18.254Z,72.78
2018-08-17T00:59:28.302Z,72.49
2018-08-17T00:59:38.335Z,72.68
2018-08-17T00:59:48.315Z,72.58
2018-08-17T00:59:58.324Z,72.58
2018-08-17T01:00:08.364Z,72.88
2018-08-17T01:00:18.344Z,72.58
2018-08-17T01:00:28.385Z,72.58
2018-08-17T01:00:38.384Z,72.68
2018-08-17T01:00:48.404Z,72.58
2018-08-17T01:00:58.415Z,72.58
2018-08-17T01:01:08.447Z,72.78
2018-08-17T01:01:18.443Z,72.58
2018-08-17T01:01:28.464Z,72.68
2018-08-17T01:01:38.484Z,72.68
2018-08-17T01:01:48.494Z,72.58
2018-08-17T01:01:58.524Z,72.49
2018-08-17T01:02:08.563Z,72.58
2018-08-17T01:02:18.524Z,72.58
2018-08-17T01:02:28.520Z,72.49
2018-08-17T01:02:38.534Z,72.68
2018-08-17T01:02:48.575Z,72.78
2018-08-17T01:02:58.584Z,72.68
2018-08-17T01:03:08.584Z,72.68
2018-08-17T01:03:18.622Z,72.88
2018-08-17T01:03:28.644Z,72.78
2018-08-17T01:03:38.635Z,72.68
2018-08-17T01:03:48.664Z,72.39
2018-08-17T01:03:58.655Z,72.3
2018-08-17T01:04:08.688Z,72.58
2018-08-17T01:04:18.684Z,72.58
2018-08-17T01:04:28.415Z,72.49
2018-08-17T01:04:38.716Z,72.49
2018-08-17T01:04:48.725Z,72.68
2018-08-17T01:04:58.745Z,72.68
2018-08-17T01:05:08.773Z,72.58
2018-08-17T01:05:18.756Z,72.39
2018-08-17T01:05:28.777Z,72.3
2018-08-17T01:05:38.785Z,72.3
2018-08-17T01:05:48.835Z,72.3
2018-08-17T01:05:58.845Z,72.68
2018-08-17T01:06:08.915Z,72.3
2018-08-17T01:06:18.873Z,72.58
2018-08-17T01:06:28.864Z,72.58
2018-08-17T01:06:38.878Z,72.58
2018-08-17T01:06:48.895Z,72.39
2018-08-17T01:06:58.915Z,72.3
2018-08-17T01:07:08.907Z,72.39
2018-08-17T01:07:18.925Z,72.58
2018-08-17T01:07:28.966Z,72.68
2018-08-17T01:07:38.940Z,72.68
2018-08-17T01:07:48.985Z,72.68
2018-08-17T01:07:59.005Z,72.68
2018-08-17T01:08:08.995Z,72.58
2018-08-17T01:08:19.035Z,72.3
2018-08-17T01:08:29.036Z,72.24
2018-08-17T01:08:39.037Z,72.49
2018-08-17T01:08:49.095Z,72.3
2018-08-17T01:08:59.085Z,72.3
2018-08-17T01:09:09.105Z,72.14
2018-08-17T01:09:19.104Z,72.39
2018-08-17T01:09:29.105Z,72.3
2018-08-17T01:09:39.105Z,72.14
2018-08-17T01:09:49.136Z,72.3
2018-08-17T01:09:59.166Z,72.68
2018-08-17T01:10:09.195Z,72.58
2018-08-17T01:10:19.180Z,72.58
2018-08-17T01:10:29.206Z,72.3
2018-08-17T01:10:39.228Z,72.3
2018-08-17T01:10:49.205Z,72.3
2018-08-17T01:10:59.235Z,72.58
2018-08-17T01:11:09.226Z,72.58
2018-08-17T01:11:18.955Z,72.58
2018-08-17T01:11:29.254Z,72.68
2018-08-17T01:11:39.296Z,72.72
2018-08-17T01:11:49.344Z,72.68
2018-08-17T01:11:59.326Z,72.49
2018-08-17T01:12:09.326Z,72.68
2018-08-17T01:12:19.356Z,72.68
2018-08-17T01:12:29.366Z,72.68
2018-08-17T01:12:39.399Z,72.68
2018-08-17T01:12:49.391Z,72.49
2018-08-17T01:12:59.407Z,72.68
2018-08-17T01:13:09.396Z,72.49
2018-08-17T01:13:19.447Z,72.49
2018-08-17T01:13:29.456Z,72.78
2018-08-17T01:13:39.445Z,72.88
2018-08-17T01:13:49.478Z,72.49
2018-08-17T01:13:59.482Z,72.58
2018-08-17T01:14:09.638Z,72.58
2018-08-17T01:14:19.509Z,72.58
2018-08-17T01:14:29.516Z,72.58
2018-08-17T01:14:39.552Z,72.58
2018-08-17T01:14:49.550Z,72.68
2018-08-17T01:14:59.586Z,72.88
2018-08-17T01:15:09.566Z,72.58
2018-08-17T01:15:19.597Z,72.58
2018-08-17T01:15:29.618Z,72.88
2018-08-17T01:15:39.647Z,72.78
2018-08-17T01:15:49.616Z,72.58
2018-08-17T01:15:59.655Z,72.78
2018-08-17T01:16:09.672Z,72.78
2018-08-17T01:16:19.666Z,72.78
2018-08-17T01:16:29.711Z,72.78
2018-08-17T01:16:39.706Z,72.78
2018-08-17T01:16:49.718Z,72.78
2018-08-17T01:16:59.766Z,72.68
2018-08-17T01:17:09.726Z,72.58
2018-08-17T01:17:19.776Z,72.58
2018-08-17T01:17:29.776Z,72.78
2018-08-17T01:17:39.786Z,72.58
2018-08-17T01:17:49.826Z,72.49
2018-08-17T01:17:59.816Z,72.68
2018-08-17T01:18:09.839Z,72.78
2018-08-17T01:18:19.846Z,72.88
2018-08-17T01:18:29.857Z,72.88
2018-08-17T01:18:39.884Z,72.58
2018-08-17T01:18:49.856Z,72.58
2018-08-17T01:18:59.895Z,72.88
2018-08-17T01:19:09.892Z,72.49
2018-08-17T01:19:19.936Z,72.49
2018-08-17T01:19:29.917Z,72.49
2018-08-17T01:19:39.960Z,72.58
2018-08-17T01:19:49.686Z,72.68
2018-08-17T01:19:59.988Z,72.68
2018-08-17T01:20:09.987Z,72.49
2018-08-17T01:20:19.998Z,72.49
2018-08-17T01:20:29.995Z,72.68
2018-08-17T01:20:39.725Z,72.78
2018-08-17T01:20:49.748Z,72.78
2018-08-17T01:21:00.058Z,72.88
2018-08-17T01:21:10.057Z,72.88
2018-08-17T01:21:20.107Z,73.07
2018-08-17T01:21:30.067Z,72.97
2018-08-17T01:21:40.130Z,73.07
2018-08-17T01:21:50.127Z,72.88
2018-08-17T01:22:00.124Z,73.36
2018-08-17T01:22:10.207Z,73.36
2018-08-17T01:22:20.156Z,72.97
2018-08-17T01:22:30.136Z,72.88
2018-08-17T01:22:40.157Z,72.88
2018-08-17T01:22:50.236Z,72.68
2018-08-17T01:23:00.217Z,73.07
2018-08-17T01:23:10.257Z,72.88
2018-08-17T01:23:20.237Z,72.88
2018-08-17T01:23:30.287Z,72.88
2018-08-17T01:23:40.267Z,72.88
2018-08-17T01:23:50.290Z,72.97
2018-08-17T01:24:00.298Z,72.97
2018-08-17T01:24:10.322Z,72.88
2018-08-17T01:24:20.351Z,72.88
2018-08-17T01:24:30.307Z,72.49
2018-08-17T01:24:40.367Z,72.2
2018-08-17T01:24:50.387Z,72.49
2018-08-17T01:25:00.418Z,72.68
2018-08-17T01:25:10.387Z,72.58
2018-08-17T01:25:20.418Z,72.78
2018-08-17T01:25:30.426Z,72.49
2018-08-17T01:25:40.446Z,72.78
2018-08-17T01:25:50.467Z,72.49
2018-08-17T01:26:00.497Z,72.78
2018-08-17T01:26:10.466Z,72.68
2018-08-17T01:26:20.480Z,72.58
2018-08-17T01:26:30.499Z,72.58
2018-08-17T01:26:40.497Z,72.58
2018-08-17T01:26:50.523Z,72.58
2018-08-17T01:27:00.574Z,72.62
2018-08-17T01:27:10.567Z,72.49
2018-08-17T01:27:20.567Z,72.58
2018-08-17T01:27:30.589Z,72.62
2018-08-17T01:27:40.600Z,72.58
2018-08-17T01:27:50.327Z,72.49
2018-08-17T01:28:00.598Z,72.49
2018-08-17T01:28:10.597Z,72.78
2018-08-17T01:28:20.657Z,72.68
2018-08-17T01:28:30.688Z,72.72
2018-08-17T01:28:40.698Z,72.68
2018-08-17T01:28:50.698Z,72.78
2018-08-17T01:29:00.707Z,72.78
2018-08-17T01:29:10.738Z,72.49
2018-08-17T01:29:20.728Z,72.58
2018-08-17T01:29:30.494Z,72.68
2018-08-17T01:29:40.791Z,72.58
2018-08-17T01:29:50.747Z,72.58
2018-08-17T01:30:00.815Z,72.58
2018-08-17T01:30:10.807Z,72.49
2018-08-17T01:30:20.847Z,72.58
2018-08-17T01:30:30.848Z,72.68
2018-08-17T01:30:40.848Z,72.68
2018-08-17T01:30:50.857Z,72.3
2018-08-17T01:31:00.888Z,72.58
2018-08-17T01:31:10.907Z,72.49
2018-08-17T01:31:20.897Z,72.68
2018-08-17T01:31:30.938Z,72.68
2018-08-17T01:31:40.957Z,72.68
2018-08-17T01:31:50.957Z,72.68
2018-08-17T01:32:00.958Z,72.88
2018-08-17T01:32:11.088Z,72.88
2018-08-17T01:32:20.979Z,72.97
2018-08-17T01:32:30.998Z,73.07
2018-08-17T01:32:41.028Z,72.97
2018-08-17T01:32:50.768Z,72.97
2018-08-17T01:33:01.048Z,72.88
2018-08-17T01:33:11.071Z,72.88
2018-08-17T01:33:21.099Z,72.88
2018-08-17T01:33:31.067Z,73.07
2018-08-17T01:33:41.095Z,73.16
2018-08-17T01:33:51.118Z,72.88
2018-08-17T01:34:01.098Z,72.97
2018-08-17T01:34:11.131Z,73.16
2018-08-17T01:34:21.149Z,72.97
2018-08-17T01:34:31.168Z,73.16
2018-08-17T01:34:41.159Z,72.88
2018-08-17T01:34:51.218Z,72.88
2018-08-17T01:35:01.212Z,72.88
2018-08-17T01:35:11.209Z,72.88
2018-08-17T01:35:21.248Z,72.88
2018-08-17T01:35:31.229Z,72.68
2018-08-17T01:35:41.281Z,72.78
2018-08-17T01:35:51.269Z,72.58
2018-08-17T01:36:01.295Z,72.49
2018-08-17T01:36:11.292Z,72.3
2018-08-17T01:36:21.326Z,72.68
2018-08-17T01:36:31.059Z,72.49
2018-08-17T01:36:41.351Z,72.49
2018-08-17T01:36:51.379Z,72.68
2018-08-17T01:37:01.378Z,72.49
2018-08-17T01:37:11.399Z,72.58
2018-08-17T01:37:21.400Z,72.58
2018-08-17T01:37:31.446Z,72.68
2018-08-17T01:37:41.397Z,72.68
2018-08-17T01:37:51.175Z,72.68
2018-08-17T01:38:01.468Z,72.68
2018-08-17T01:38:11.479Z,72.49
2018-08-17T01:38:21.478Z,72.49
2018-08-17T01:38:31.508Z,72.49
2018-08-17T01:38:41.489Z,72.49
2018-08-17T01:38:51.489Z,72.3
2018-08-17T01:39:01.544Z,72.58
2018-08-17T01:39:11.273Z,72.49
2018-08-17T01:39:21.581Z,72.78
2018-08-17T01:39:31.609Z,72.68
2018-08-17T01:39:41.578Z,72.58
2018-08-17T01:39:51.579Z,72.68
2018-08-17T01:40:01.619Z,72.58
2018-08-17T01:40:11.659Z,72.58
2018-08-17T01:40:21.639Z,72.68
2018-08-17T01:40:31.651Z,72.49
2018-08-17T01:40:41.689Z,72.49
2018-08-17T01:40:51.678Z,72.78
2018-08-17T01:41:01.703Z,72.49
2018-08-17T01:41:11.729Z,72.49
2018-08-17T01:41:21.709Z,72.49
2018-08-17T01:41:31.752Z,72.68
2018-08-17T01:41:41.726Z,72.39
2018-08-17T01:41:51.779Z,72.68
2018-08-17T01:42:01.765Z,72.78
2018-08-17T01:42:11.778Z,72.78
2018-08-17T01:42:21.779Z,72.68
2018-08-17T01:42:31.820Z,72.68
2018-08-17T01:42:41.858Z,72.78
2018-08-17T01:42:51.870Z,72.78
2018-08-17T01:43:01.610Z,72.49
2018-08-17T01:43:11.879Z,72.3
2018-08-17T01:43:21.632Z,72.49
2018-08-17T01:43:31.909Z,72.49
2018-08-17T01:43:41.929Z,72.88
2018-08-17T01:43:51.931Z,72.68
2018-08-17T01:44:01.919Z,72.88
2018-08-17T01:44:11.960Z,72.88
2018-08-17T01:44:21.990Z,72.72
2018-08-17T01:44:31.961Z,72.68
2018-08-17T01:44:42.000Z,72.78
2018-08-17T01:44:51.770Z,72.78
2018-08-17T01:45:02.030Z,72.81
2018-08-17T01:45:12.050Z,72.68
2018-08-17T01:45:22.070Z,72.78
2018-08-17T01:45:32.050Z,72.58
2018-08-17T01:45:42.081Z,72.39
2018-08-17T01:45:52.089Z,72.78
2018-08-17T01:46:02.121Z,72.68
2018-08-17T01:46:12.100Z,72.3
2018-08-17T01:46:22.182Z,72.49
2018-08-17T01:46:32.170Z,72.3
2018-08-17T01:46:42.170Z,72.3
2018-08-17T01:46:52.200Z,72.78
2018-08-17T01:47:02.208Z,72.3
2018-08-17T01:47:12.210Z,72.78
2018-08-17T01:47:21.949Z,72.68
2018-08-17T01:47:32.230Z,73.07
2018-08-17T01:47:41.970Z,72.58
2018-08-17T01:47:52.250Z,72.88
2018-08-17T01:48:02.259Z,72.88
2018-08-17T01:48:12.299Z,72.97
2018-08-17T01:48:22.303Z,73.07
2018-08-17T01:48:32.320Z,72.97
2018-08-17T01:48:42.309Z,73.07
2018-08-17T01:48:52.091Z,72.88
2018-08-17T01:49:02.389Z,72.88
2018-08-17T01:49:12.379Z,72.68
2018-08-17T01:49:22.371Z,72.88
2018-08-17T01:49:32.487Z,72.88
2018-08-17T01:49:42.431Z,72.88
2018-08-17T01:49:52.419Z,73.07
2018-08-17T01:50:02.459Z,73.07
2018-08-17T01:50:12.471Z,73.07
2018-08-17T01:50:22.478Z,73.07
2018-08-17T01:50:32.475Z,72.88
2018-08-17T01:50:42.525Z,73.07
2018-08-17T01:50:52.510Z,73.07
2018-08-17T01:51:02.520Z,73.07
2018-08-17T01:51:12.550Z,72.68
2018-08-17T01:51:22.571Z,72.68
2018-08-17T01:51:32.560Z,72.88
2018-08-17T01:51:42.570Z,72.68
2018-08-17T01:51:52.597Z,72.78
2018-08-17T01:52:02.613Z,73.07
2018-08-17T01:52:12.644Z,72.88
2018-08-17T01:52:22.631Z,72.88
2018-08-17T01:52:32.643Z,72.97
2018-08-17T01:52:42.661Z,72.97
2018-08-17T01:52:52.640Z,72.97
2018-08-17T01:53:02.690Z,72.88
2018-08-17T01:53:12.722Z,73.16
2018-08-17T01:53:22.440Z,73.16
2018-08-17T01:53:32.751Z,73.07
2018-08-17T01:53:42.451Z,72.97
2018-08-17T01:53:52.761Z,72.88
2018-08-17T01:54:02.760Z,73.07
2018-08-17T01:54:12.781Z,72.88
2018-08-17T01:54:22.805Z,73.07
2018-08-17T01:54:32.811Z,73.07
2018-08-17T01:54:42.834Z,72.88
2018-08-17T01:54:52.871Z,72.88
2018-08-17T01:55:02.861Z,72.68
2018-08-17T01:55:12.840Z,72.88
2018-08-17T01:55:22.880Z,72.97
2018-08-17T01:55:32.890Z,72.97
2018-08-17T01:55:42.890Z,72.78
2018-08-17T01:55:52.937Z,72.88
2018-08-17T01:56:02.932Z,72.68
2018-08-17T01:56:12.929Z,72.88
2018-08-17T01:56:22.970Z,72.78
2018-08-17T01:56:32.953Z,72.68
2018-08-17T01:56:43.003Z,72.88
2018-08-17T01:56:53.001Z,72.97
2018-08-17T01:57:03.011Z,72.97
2018-08-17T01:57:13.027Z,73.07
2018-08-17T01:57:23.040Z,72.97
2018-08-17T01:57:33.041Z,72.68
2018-08-17T01:57:43.071Z,72.68
2018-08-17T01:57:53.071Z,72.68
2018-08-17T01:58:03.111Z,72.88
2018-08-17T01:58:12.832Z,72.78
2018-08-17T01:58:23.102Z,72.97
2018-08-17T01:58:33.123Z,72.68
2018-08-17T01:58:43.131Z,72.68
2018-08-17T01:58:53.155Z,72.68
2018-08-17T01:59:03.192Z,72.88
2018-08-17T01:59:13.162Z,73.07
2018-08-17T01:59:23.198Z,72.97
2018-08-17T01:59:33.202Z,72.97
2018-08-17T01:59:43.221Z,73.36
2018-08-17T01:59:53.276Z,72.97
2018-08-17T02:00:03.271Z,72.97
2018-08-17T02:00:13.282Z,72.88
2018-08-17T02:00:23.302Z,72.88
2018-08-17T02:00:33.022Z,72.68
2018-08-17T02:00:43.316Z,72.88
2018-08-17T02:00:53.322Z,72.78
2018-08-17T02:01:03.355Z,72.78
2018-08-17T02:01:13.390Z,72.68
2018-08-17T02:01:23.362Z,72.88
2018-08-17T02:01:33.383Z,72.78
2018-08-17T02:01:43.429Z,73.55
2018-08-17T02:01:53.442Z,73.07
2018-08-17T02:02:03.434Z,72.88
2018-08-17T02:02:13.431Z,73.07
2018-08-17T02:02:23.491Z,73.07
2018-08-17T02:02:33.484Z,72.68
2018-08-17T02:02:43.505Z,72.78
2018-08-17T02:02:53.493Z,72.88
2018-08-17T02:03:03.541Z,72.97
2018-08-17T02:03:13.511Z,72.88
2018-08-17T02:03:23.561Z,73.36
2018-08-17T02:03:33.552Z,73.36
2018-08-17T02:03:43.541Z,73.36
2018-08-17T02:03:53.581Z,73.16
2018-08-17T02:04:03.591Z,72.97
2018-08-17T02:04:13.581Z,72.88
2018-08-17T02:04:23.351Z,73.07
2018-08-17T02:04:33.646Z,73.16
2018-08-17T02:04:43.361Z,73.26
2018-08-17T02:04:53.651Z,73.16
2018-08-17T02:05:03.689Z,73.16
2018-08-17T02:05:13.692Z,73.26
2018-08-17T02:05:23.710Z,73.26
2018-08-17T02:05:33.712Z,72.97
2018-08-17T02:05:43.713Z,73.26
2018-08-17T02:05:53.733Z,73.26
2018-08-17T02:06:03.743Z,73.36
2018-08-17T02:06:13.783Z,73.36
2018-08-17T02:06:23.756Z,73.46
2018-08-17T02:06:33.785Z,73.26
2018-08-17T02:06:43.815Z,73.26
2018-08-17T02:06:53.844Z,73.46
2018-08-17T02:07:03.833Z,73.55
2018-08-17T02:07:13.861Z,73.36
2018-08-17T02:07:23.856Z,73.36
2018-08-17T02:07:33.901Z,73.55
2018-08-17T02:07:43.883Z,73.46
2018-08-17T02:07:53.893Z,73.36
2018-08-17T02:08:03.922Z,73.36
2018-08-17T02:08:13.946Z,73.26
2018-08-17T02:08:23.926Z,73.36
2018-08-17T02:08:33.962Z,73.26
2018-08-17T02:08:43.983Z,73.46
2018-08-17T02:08:53.982Z,73.36
2018-08-17T02:09:04.023Z,73.16
2018-08-17T02:09:14.030Z,73.36
2018-08-17T02:09:24.051Z,73.26
2018-08-17T02:09:34.034Z,73.16
2018-08-17T02:09:44.058Z,73.26